Time;durP1;ratioP1;P1;durP2;ratioP2;P2;SDS_P1;SDS_P2;PMS_P1;PMS_P2;Temp;Humidity;BMP_temperature;BMP_pressure;BME280_temperature;BME280_humidity;BME280_pressure;Samples;Min_cycle;Max_cycle;Signal;HPM_P1;HPM_P2
2023/07/21 00:00:26;;;;;;;4.43;3.90;;;17.20;99.90;;;;;;5034924;28;20295;-76
2023/07/21 00:02:53;;;;;;;4.30;3.70;;;17.20;99.90;;;;;;5033428;28;20603;-76
2023/07/21 00:05:22;;;;;;;2.87;2.63;;;17.10;99.90;;;;;;5033427;28;20199;-76
2023/07/21 00:07:49;;;;;;;3.50;3.20;;;17.20;99.90;;;;;;5041634;28;20208;-77
2023/07/21 00:10:18;;;;;;;4.10;3.23;;;17.20;99.90;;;;;;5033348;28;20197;-76
2023/07/21 00:12:47;;;;;;;6.27;4.27;;;17.20;99.90;;;;;;5034650;28;20232;-77
2023/07/21 00:15:15;;;;;;;4.10;3.80;;;17.20;99.90;;;;;;5034839;28;20242;-76
2023/07/21 00:17:42;;;;;;;4.03;3.73;;;17.20;99.90;;;;;;5034392;28;20199;-78
2023/07/21 00:20:12;;;;;;;4.33;3.93;;;17.30;99.90;;;;;;5039691;28;20229;-78
2023/07/21 00:22:39;;;;;;;3.80;3.50;;;17.20;99.90;;;;;;5039981;28;20227;-79
2023/07/21 00:25:10;;;;;;;4.20;3.80;;;17.20;99.90;;;;;;5040548;28;20265;-78
2023/07/21 00:27:39;;;;;;;4.30;3.90;;;17.20;99.90;;;;;;5039621;28;20205;-78
2023/07/21 00:30:08;;;;;;;4.33;3.67;;;17.30;99.90;;;;;;5038592;28;20254;-78
2023/07/21 00:32:35;;;;;;;4.90;2.50;;;17.30;99.90;;;;;;5039406;28;20204;-79
2023/07/21 00:35:04;;;;;;;4.10;2.60;;;17.30;99.90;;;;;;5038739;28;20279;-76
2023/07/21 00:37:31;;;;;;;3.07;2.40;;;17.30;99.90;;;;;;5032592;28;20574;-77
2023/07/21 00:39:57;;;;;;;2.40;2.20;;;17.30;99.90;;;;;;5032037;28;20787;-76
2023/07/21 00:42:24;;;;;;;2.80;2.10;;;17.30;99.90;;;;;;5037351;28;20195;-76
2023/07/21 00:44:52;;;;;;;3.17;2.97;;;17.30;99.90;;;;;;5037275;28;20259;-77
2023/07/21 00:47:20;;;;;;;4.07;3.77;;;17.30;99.90;;;;;;5032062;28;20208;-76
2023/07/21 00:49:46;;;;;;;5.43;3.87;;;17.40;99.90;;;;;;5032483;28;20574;-76
2023/07/21 00:52:17;;;;;;;3.97;3.67;;;17.30;99.90;;;;;;5032604;28;20295;-76
2023/07/21 00:54:44;;;;;;;3.93;3.63;;;17.30;99.90;;;;;;5033661;28;20222;-76
2023/07/21 00:57:11;;;;;;;4.40;4.00;;;17.40;99.90;;;;;;5032618;28;20251;-77
2023/07/21 00:59:38;;;;;;;4.50;4.20;;;17.30;99.90;;;;;;5032026;28;20663;-76
2023/07/21 01:02:07;;;;;;;4.10;3.70;;;17.30;99.90;;;;;;5032083;28;20206;-77
2023/07/21 01:04:34;;;;;;;4.23;3.83;;;17.30;99.90;;;;;;5032095;28;20238;-76
2023/07/21 01:07:03;;;;;;;5.37;3.73;;;17.40;99.90;;;;;;5033277;28;20193;-76
2023/07/21 01:09:31;;;;;;;4.90;3.90;;;17.40;99.90;;;;;;5033305;28;20206;-76
2023/07/21 01:11:58;;;;;;;4.13;3.83;;;17.40;99.90;;;;;;5031740;28;20200;-78
2023/07/21 01:14:29;;;;;;;3.90;3.70;;;17.40;99.90;;;;;;5032529;28;20219;-76
2023/07/21 01:16:58;;;;;;;3.73;3.43;;;17.40;99.90;;;;;;5032709;28;20191;-76
2023/07/21 01:19:27;;;;;;;3.83;3.57;;;17.30;99.90;;;;;;5031590;28;20706;-76
2023/07/21 01:21:59;;;;;;;5.73;4.10;;;17.30;99.90;;;;;;5031474;28;20224;-77
2023/07/21 01:24:36;;;;;;;4.60;4.10;;;17.30;99.90;;;;;;5050397;28;20219;-76
2023/07/21 01:27:06;;;;;;;4.00;3.70;;;17.30;99.90;;;;;;5033158;28;20210;-77
2023/07/21 01:29:35;;;;;;;4.93;4.53;;;17.30;99.90;;;;;;5031563;28;20221;-76
2023/07/21 01:32:03;;;;;;;3.60;3.40;;;17.30;99.90;;;;;;5041576;28;20270;-76
2023/07/21 01:34:32;;;;;;;4.17;3.87;;;17.20;99.90;;;;;;5037402;28;20218;-76
2023/07/21 01:37:00;;;;;;;4.40;4.00;;;17.20;99.90;;;;;;5038937;28;20204;-76
2023/07/21 01:39:28;;;;;;;4.37;4.07;;;17.20;99.90;;;;;;5038563;28;20251;-76
2023/07/21 01:41:56;;;;;;;4.10;3.80;;;17.10;99.90;;;;;;5031560;28;20223;-78
2023/07/21 01:44:24;;;;;;;4.43;3.57;;;17.10;99.90;;;;;;5034208;28;20244;-78
2023/07/21 01:46:52;;;;;;;3.47;3.17;;;17.10;99.90;;;;;;5038598;28;20196;-78
2023/07/21 01:49:20;;;;;;;3.43;3.20;;;17.00;99.90;;;;;;5036748;28;20670;-78
2023/07/21 01:51:48;;;;;;;3.97;3.60;;;17.00;99.90;;;;;;5039047;28;20196;-79
2023/07/21 01:54:21;;;;;;;4.57;3.90;;;17.00;99.90;;;;;;5037685;28;20226;-79
2023/07/21 01:56:54;;;;;;;3.07;2.40;;;16.90;99.90;;;;;;5043524;28;20208;-79
2023/07/21 01:59:22;;;;;;;2.50;2.30;;;16.90;99.90;;;;;;5036017;28;20231;-79
2023/07/21 02:01:52;;;;;;;2.90;2.57;;;16.80;99.90;;;;;;5037318;28;20311;-79
2023/07/21 02:04:19;;;;;;;3.63;2.20;;;16.80;99.90;;;;;;5038404;28;20227;-79
2023/07/21 02:06:47;;;;;;;2.40;2.20;;;16.70;99.90;;;;;;5036193;28;20214;-78
2023/07/21 02:09:14;;;;;;;5.50;5.10;;;16.70;99.90;;;;;;5040761;28;20578;-78
2023/07/21 02:11:41;;;;;;;2.67;2.43;;;16.60;99.90;;;;;;5038316;28;20196;-79
2023/07/21 02:14:31;;;;;;;4.90;4.50;;;16.50;99.90;;;;;;5028119;28;20301;-78
2023/07/21 02:16:59;;;;;;;4.80;4.30;;;16.40;99.90;;;;;;5036692;28;20214;-78
2023/07/21 02:19:26;;;;;;;2.60;2.17;;;16.40;99.90;;;;;;5036394;28;20558;-78
2023/07/21 02:21:52;;;;;;;3.07;2.47;;;16.40;99.90;;;;;;5036929;28;20231;-78
2023/07/21 02:24:20;;;;;;;4.87;4.23;;;16.30;99.90;;;;;;5037206;28;20219;-78
2023/07/21 02:26:47;;;;;;;5.00;4.60;;;16.20;99.90;;;;;;5037540;28;20238;-78
2023/07/21 02:29:14;;;;;;;4.50;4.10;;;16.20;99.90;;;;;;5037944;28;20222;-78
2023/07/21 02:31:40;;;;;;;4.30;4.00;;;16.30;99.90;;;;;;5036632;28;20192;-79
2023/07/21 02:34:09;;;;;;;4.83;4.43;;;16.30;99.90;;;;;;5036341;28;20235;-78
2023/07/21 02:36:35;;;;;;;4.97;4.60;;;16.30;99.90;;;;;;5036779;28;20196;-78
2023/07/21 02:39:03;;;;;;;5.10;4.60;;;16.40;99.90;;;;;;5036594;28;20207;-79
2023/07/21 02:41:30;;;;;;;4.40;4.10;;;16.40;99.90;;;;;;5034597;28;20603;-79
2023/07/21 02:43:57;;;;;;;4.43;3.60;;;16.40;99.90;;;;;;5033642;28;20228;-79
2023/07/21 02:46:23;;;;;;;3.60;3.30;;;16.50;99.90;;;;;;5041467;28;20283;-80
2023/07/21 02:48:52;;;;;;;3.40;3.20;;;16.50;99.90;;;;;;5032203;28;20222;-77
2023/07/21 02:51:20;;;;;;;3.70;3.40;;;16.60;99.90;;;;;;5031426;28;20223;-78
2023/07/21 02:53:48;;;;;;;3.70;3.40;;;16.60;99.90;;;;;;5029468;28;20216;-77
2023/07/21 02:56:27;;;;;;;3.93;3.73;;;16.60;99.90;;;;;;5031456;28;20200;-81
2023/07/21 02:59:03;;;;;;;4.60;4.20;;;16.50;99.90;;;;;;5028200;28;20215;-80
2023/07/21 03:01:30;;;;;;;4.03;3.80;;;16.40;99.90;;;;;;5029736;28;20688;-79
2023/07/21 03:03:58;;;;;;;4.80;4.40;;;16.40;99.90;;;;;;5029740;28;20280;-82
2023/07/21 03:06:30;;;;;;;4.10;3.80;;;16.40;99.90;;;;;;5024707;28;20209;-79
2023/07/21 03:08:57;;;;;;;3.90;3.60;;;16.30;99.90;;;;;;5029688;28;20203;-80
2023/07/21 03:11:28;;;;;;;4.57;3.60;;;16.30;99.90;;;;;;5031424;28;20741;-80
2023/07/21 03:14:09;;;;;;;5.10;4.63;;;16.20;99.90;;;;;;5032979;28;20262;-82
2023/07/21 03:16:36;;;;;;;4.27;3.87;;;16.00;99.90;;;;;;5032840;28;20230;-80
2023/07/21 03:19:04;;;;;;;2.67;2.47;;;15.90;99.90;;;;;;5033266;28;20196;-79
2023/07/21 03:21:32;;;;;;;2.53;2.33;;;15.90;99.90;;;;;;5033278;28;20299;-80
2023/07/21 03:23:59;;;;;;;3.87;3.50;;;15.70;99.90;;;;;;5033552;28;20231;-82
2023/07/21 03:26:28;;;;;;;3.63;3.00;;;15.70;99.90;;;;;;5033309;28;20195;-79
2023/07/21 03:28:55;;;;;;;5.00;4.60;;;15.50;99.90;;;;;;5033529;28;20252;-83
2023/07/21 03:31:25;;;;;;;5.60;5.10;;;15.50;99.90;;;;;;5030212;28;20629;-79
2023/07/21 03:34:02;;;;;;;5.40;5.00;;;15.40;99.90;;;;;;5032144;28;20729;-78
2023/07/21 03:36:32;;;;;;;3.77;3.47;;;15.30;99.90;;;;;;5041200;28;20200;-76
2023/07/21 03:39:01;;;;;;;5.23;4.83;;;15.30;99.90;;;;;;5033045;28;20250;-76
2023/07/21 03:41:28;;;;;;;4.77;3.47;;;15.20;99.90;;;;;;5032896;28;20226;-76
2023/07/21 03:43:56;;;;;;;5.30;4.80;;;15.20;99.90;;;;;;5033621;28;20505;-78
2023/07/21 03:46:23;;;;;;;5.90;5.40;;;15.10;99.90;;;;;;5037985;28;20271;-78
2023/07/21 03:49:13;;;;;;;6.00;5.50;;;15.00;99.90;;;;;;5036713;28;20211;-78
2023/07/21 03:51:46;;;;;;;4.17;3.07;;;15.00;99.90;;;;;;5037530;28;20669;-78
2023/07/21 03:54:15;;;;;;;3.60;3.20;;;15.00;99.90;;;;;;5036733;28;20222;-78
2023/07/21 03:56:42;;;;;;;2.73;2.50;;;15.00;99.90;;;;;;5036850;28;20210;-78
2023/07/21 03:59:10;;;;;;;4.07;2.77;;;15.00;99.90;;;;;;5035584;28;20206;-78
2023/07/21 04:01:37;;;;;;;3.30;2.70;;;15.00;99.90;;;;;;5037557;28;20272;-78
2023/07/21 04:04:04;;;;;;;3.20;2.60;;;15.00;99.90;;;;;;5043319;28;20264;-78
2023/07/21 04:06:31;;;;;;;3.30;2.50;;;15.00;99.90;;;;;;5027952;28;20574;-79
2023/07/21 04:09:00;;;;;;;6.20;5.60;;;14.90;99.90;;;;;;5035852;28;20205;-78
2023/07/21 04:11:26;;;;;;;6.03;5.50;;;14.90;99.90;;;;;;5035953;28;20577;-78
2023/07/21 04:13:53;;;;;;;5.80;5.30;;;14.90;99.90;;;;;;5036224;28;20224;-78
2023/07/21 04:16:20;;;;;;;5.07;4.67;;;15.00;99.90;;;;;;5035733;28;20199;-78
2023/07/21 04:18:47;;;;;;;5.80;5.30;;;15.10;99.90;;;;;;5036208;28;20213;-78
2023/07/21 04:21:14;;;;;;;6.03;5.53;;;15.10;99.90;;;;;;5032678;28;20220;-78
2023/07/21 04:23:41;;;;;;;5.97;5.47;;;15.30;99.90;;;;;;5035659;28;20221;-78
2023/07/21 04:26:11;;;;;;;5.77;5.27;;;15.40;99.90;;;;;;5044858;28;20214;-78
2023/07/21 04:28:41;;;;;;;6.03;5.43;;;15.50;99.90;;;;;;5036293;28;20293;-78
2023/07/21 04:31:09;;;;;;;6.07;5.53;;;15.60;99.90;;;;;;5036877;28;20717;-78
2023/07/21 04:33:44;;;;;;;5.63;5.13;;;15.80;99.90;;;;;;5036061;28;20291;-78
2023/07/21 04:36:11;;;;;;;6.23;5.67;;;15.90;99.90;;;;;;5035482;28;20254;-79
2023/07/21 04:38:38;;;;;;;5.80;5.30;;;15.90;99.90;;;;;;5035092;28;20229;-78
2023/07/21 04:41:14;;;;;;;4.70;3.63;;;16.00;99.90;;;;;;5035190;28;20215;-78
2023/07/21 04:43:43;;;;;;;4.47;3.40;;;16.10;99.90;;;;;;5043339;28;20219;-78
2023/07/21 04:46:10;;;;;;;5.90;5.40;;;16.20;99.90;;;;;;5035239;28;20203;-78
2023/07/21 04:48:39;;;;;;;5.73;3.73;;;16.30;99.90;;;;;;5042855;28;20763;-78
2023/07/21 04:51:12;;;;;;;4.40;3.30;;;16.40;99.90;;;;;;5043352;28;20249;-79
2023/07/21 04:53:39;;;;;;;4.90;4.40;;;16.40;99.90;;;;;;5034734;28;20732;-78
2023/07/21 04:56:07;;;;;;;6.07;5.60;;;16.50;99.90;;;;;;5033990;28;20278;-78
2023/07/21 04:58:41;;;;;;;5.37;4.97;;;16.60;99.90;;;;;;5034526;28;20229;-78
2023/07/21 05:01:09;;;;;;;4.30;3.37;;;16.70;99.90;;;;;;5034382;28;20206;-78
2023/07/21 05:03:36;;;;;;;3.13;2.80;;;16.80;99.90;;;;;;5034146;28;21071;-78
2023/07/21 05:06:02;;;;;;;3.97;3.67;;;16.90;99.90;;;;;;5035053;28;20203;-78
2023/07/21 05:08:30;;;;;;;6.07;5.50;;;17.00;99.90;;;;;;5034433;28;20578;-78
2023/07/21 05:11:00;;;;;;;6.50;5.90;;;;;;;;;;5034163;28;20200;-78
2023/07/21 05:13:28;;;;;;;6.43;4.30;;;17.00;99.90;;;;;;5043635;28;20302;-78
2023/07/21 05:16:02;;;;;;;5.97;5.47;;;16.90;99.90;;;;;;5040040;28;20194;-78
2023/07/21 05:18:48;;;;;;;5.73;5.13;;;17.10;99.90;;;;;;5038316;28;20210;-77
2023/07/21 05:21:32;;;;;;;6.93;6.40;;;17.30;99.90;;;;;;5033070;28;20219;-77
2023/07/21 05:24:05;;;;;;;5.63;4.83;;;17.30;99.90;;;;;;5032977;28;20329;-77
2023/07/21 05:26:35;;;;;;;5.53;5.10;;;17.20;99.90;;;;;;5031474;28;20203;-77
2023/07/21 05:29:03;;;;;;;5.47;5.03;;;17.20;99.90;;;;;;5031492;28;20208;-77
2023/07/21 05:31:40;;;;;;;6.10;4.83;;;17.20;99.90;;;;;;5031626;28;20586;-77
2023/07/21 05:34:18;;;;;;;5.90;5.40;;;17.30;99.90;;;;;;5028215;28;20220;-77
2023/07/21 05:36:45;;;;;;;4.27;2.67;;;17.50;99.90;;;;;;5035245;28;20704;-77
2023/07/21 05:39:12;;;;;;;5.13;2.80;;;17.60;99.90;;;;;;5035575;28;20881;-77
2023/07/21 05:41:39;;;;;;;5.63;5.13;;;17.90;99.90;;;;;;5032896;28;20212;-77
2023/07/21 05:44:06;;;;;;;5.23;4.80;;;18.10;99.90;;;;;;5031457;28;20210;-77
2023/07/21 05:46:38;;;;;;;6.17;5.77;;;18.30;99.90;;;;;;5031392;28;20224;-77
2023/07/21 05:49:09;;;;;;;5.97;5.57;;;18.60;99.90;;;;;;5031208;28;20246;-79
2023/07/21 05:51:37;;;;;;;3.77;3.37;;;18.90;99.90;;;;;;5031893;28;20199;-78
2023/07/21 05:54:15;;;;;;;4.90;4.50;;;19.40;99.90;;;;;;5031270;28;20214;-77
2023/07/21 05:56:42;;;;;;;4.30;3.50;;;20.20;99.90;;;;;;5031756;28;20196;-78
2023/07/21 05:59:17;;;;;;;3.40;3.10;;;20.40;99.90;;;;;;5031362;28;20625;-77
2023/07/21 06:01:45;;;;;;;6.13;5.63;;;20.40;99.90;;;;;;5031438;28;20219;-77
2023/07/21 06:04:13;;;;;;;6.10;5.60;;;20.40;99.90;;;;;;5031909;28;20224;-77
2023/07/21 06:06:45;;;;;;;6.10;5.50;;;20.20;99.90;;;;;;5031505;28;20196;-77
2023/07/21 06:09:31;;;;;;;4.30;4.00;;;20.40;99.90;;;;;;5032475;28;20206;-77
2023/07/21 06:12:26;;;;;;;5.70;5.20;;;20.50;99.90;;;;;;5029043;28;20199;-77
2023/07/21 06:15:10;;;;;;;5.27;4.87;;;20.60;99.90;;;;;;5027535;28;20242;-79
2023/07/21 06:17:57;;;;;;;5.90;5.40;;;20.80;99.90;;;;;;5031701;28;20685;-78
2023/07/21 06:20:27;;;;;;;3.67;2.80;;;21.30;99.90;;;;;;5032165;28;20200;-77
2023/07/21 06:22:56;;;;;;;3.20;2.23;;;21.70;99.90;;;;;;5030489;28;20235;-78
2023/07/21 06:25:24;;;;;;;4.70;2.73;;;21.90;99.90;;;;;;5031149;28;20740;-78
2023/07/21 06:27:58;;;;;;;4.93;4.53;;;22.10;99.90;;;;;;5030840;28;20196;-81
2023/07/21 06:30:25;;;;;;;4.33;3.33;;;22.50;99.90;;;;;;5030526;28;20246;-82
2023/07/21 06:32:53;;;;;;;4.93;4.53;;;22.90;99.90;;;;;;5038904;28;20226;-82
2023/07/21 06:35:40;;;;;;;5.10;4.80;;;23.20;99.90;;;;;;5039360;28;20187;-82
2023/07/21 06:38:21;;;;;;;5.97;5.47;;;23.60;99.90;;;;;;5030939;28;20287;-81
2023/07/21 06:41:10;;;;;;;5.30;4.90;;;24.10;99.90;;;;;;5030493;28;20548;-79
2023/07/21 06:43:50;;;;;;;7.67;5.13;;;24.60;99.90;;;;;;5030627;28;20629;-82
2023/07/21 06:46:23;;;;;;;6.23;5.00;;;25.10;99.90;;;;;;5028945;28;20295;-84
2023/07/21 06:48:53;;;;;;;5.20;4.70;;;25.40;99.40;;;;;;5034990;28;20218;-82
2023/07/21 06:51:46;;;;;;;5.50;5.10;;;25.20;99.10;;;;;;5033792;28;20223;-83
2023/07/21 06:54:13;;;;;;;5.83;5.33;;;25.00;99.60;;;;;;5035602;28;20215;-82
2023/07/21 06:56:40;;;;;;;6.10;5.60;;;25.10;99.70;;;;;;5042061;28;20648;-82
2023/07/21 06:59:07;;;;;;;5.57;5.07;;;25.40;99.40;;;;;;5034318;28;20204;-82
2023/07/21 07:01:35;;;;;;;5.67;5.17;;;25.50;98.80;;;;;;5042153;28;20281;-81
2023/07/21 07:04:01;;;;;;;5.70;5.27;;;25.30;98.20;;;;;;5037599;28;20211;-81
2023/07/21 07:06:28;;;;;;;6.73;5.13;;;25.00;98.60;;;;;;5034958;28;20192;-80
2023/07/21 07:08:57;;;;;;;4.27;3.87;;;24.70;99.40;;;;;;5042206;28;20212;-83
2023/07/21 07:11:23;;;;;;;5.60;5.10;;;24.90;98.70;;;;;;5042482;28;20682;-83
2023/07/21 07:13:51;;;;;;;6.53;4.40;;;25.30;99.10;;;;;;5068222;22;20227;-79
2023/07/21 07:16:17;;;;;;;3.57;3.27;;;25.40;98.60;;;;;;5067755;28;20190;-79
2023/07/21 07:18:44;;;;;;;4.60;4.20;;;25.40;97.40;;;;;;5069814;28;20230;-79
2023/07/21 07:21:12;;;;;;;3.50;3.20;;;25.50;97.10;;;;;;5060360;28;20564;-79
2023/07/21 07:23:39;;;;;;;4.37;2.97;;;25.30;97.80;;;;;;5068945;28;20234;-79
2023/07/21 07:26:07;;;;;;;5.10;4.70;;;25.20;97.50;;;;;;5073108;28;20193;-79
2023/07/21 07:28:34;;;;;;;5.13;4.60;;;24.90;98.00;;;;;;5072262;28;20191;-79
2023/07/21 07:31:04;;;;;;;5.70;5.10;;;24.60;98.50;;;;;;5077536;28;20618;-78
2023/07/21 07:33:31;;;;;;;3.40;3.10;;;24.50;99.40;;;;;;5076114;28;20275;-78
2023/07/21 07:35:59;;;;;;;3.20;2.40;;;24.40;99.00;;;;;;5072232;28;20191;-79
2023/07/21 07:38:27;;;;;;;3.30;2.40;;;24.30;99.60;;;;;;5070088;28;20209;-77
2023/07/21 07:40:54;;;;;;;3.17;2.40;;;24.30;99.20;;;;;;5074652;28;20229;-79
2023/07/21 07:43:23;;;;;;;3.97;2.27;;;24.60;99.60;;;;;;5066480;28;20223;-80
2023/07/21 07:45:49;;;;;;;3.47;2.20;;;24.80;98.40;;;;;;5072199;28;20625;-78
2023/07/21 07:48:16;;;;;;;2.77;2.53;;;24.80;99.00;;;;;;5056103;28;20200;-78
2023/07/21 07:50:43;;;;;;;5.57;2.63;;;24.70;98.00;;;;;;5051994;28;20206;-79
2023/07/21 07:53:11;;;;;;;3.70;2.63;;;24.60;98.40;;;;;;5065108;28;20244;-78
2023/07/21 07:55:38;;;;;;;2.53;2.33;;;24.60;99.00;;;;;;5072824;28;20190;-78
2023/07/21 07:58:06;;;;;;;2.80;2.40;;;24.50;99.20;;;;;;5061857;28;20224;-78
2023/07/21 08:00:36;;;;;;;4.00;3.63;;;24.40;98.10;;;;;;5055786;28;20570;-78
2023/07/21 08:03:04;;;;;;;6.97;5.07;;;24.30;99.00;;;;;;5062207;28;20361;-79
2023/07/21 08:05:31;;;;;;;4.53;4.17;;;24.10;98.50;;;;;;5068522;28;20704;-77
2023/07/21 08:08:01;;;;;;;5.20;4.80;;;23.90;99.90;;;;;;5072082;28;20214;-79
2023/07/21 08:10:28;;;;;;;2.40;2.23;;;23.80;98.80;;;;;;5067525;28;20204;-83
2023/07/21 08:12:55;;;;;;;5.30;4.90;;;24.10;99.10;;;;;;5075581;28;20190;-78
2023/07/21 08:15:22;;;;;;;2.93;2.10;;;24.40;97.50;;;;;;5064345;28;20202;-75
2023/07/21 08:17:51;;;;;;;2.50;2.30;;;24.60;99.00;;;;;;5065000;28;20202;-75
2023/07/21 08:20:18;;;;;;;5.57;3.03;;;25.10;98.00;;;;;;5065679;28;20195;-76
2023/07/21 08:22:45;;;;;;;4.57;2.40;;;25.60;95.90;;;;;;5057286;28;20223;-75
2023/07/21 08:25:12;;;;;;;3.40;3.10;;;26.10;96.90;;;;;;5065742;28;20238;-75
2023/07/21 08:27:39;;;;;;;3.40;2.13;;;26.40;94.00;;;;;;5063621;28;20196;-75
2023/07/21 08:30:08;;;;;;;5.60;5.07;;;26.50;93.60;;;;;;5064307;28;20195;-75
2023/07/21 08:32:35;;;;;;;5.00;4.50;;;26.70;93.80;;;;;;5069541;28;20677;-75
2023/07/21 08:35:04;;;;;;;4.40;4.10;;;27.10;93.40;;;;;;5049395;28;20238;-75
2023/07/21 08:37:31;;;;;;;5.00;4.50;;;27.30;93.30;;;;;;5069279;28;20277;-75
2023/07/21 08:39:58;;;;;;;5.43;5.00;;;27.40;91.40;;;;;;5062017;28;20282;-76
2023/07/21 08:42:25;;;;;;;2.50;2.30;;;27.90;92.40;;;;;;5057885;28;20306;-75
2023/07/21 08:44:53;;;;;;;3.10;2.90;;;28.10;92.60;;;;;;5063036;28;20222;-76
2023/07/21 08:47:20;;;;;;;3.70;2.30;;;28.30;91.90;;;;;;5058782;28;20194;-76
2023/07/21 08:49:48;;;;;;;3.37;3.00;;;28.00;91.40;;;;;;5065656;28;20555;-75
2023/07/21 08:52:16;;;;;;;3.93;2.40;;;27.50;92.50;;;;;;5065000;28;20194;-76
2023/07/21 08:54:44;;;;;;;4.03;2.20;;;27.80;92.70;;;;;;5067772;28;20260;-75
2023/07/21 08:57:11;;;;;;;4.47;4.03;;;28.10;91.40;;;;;;5067929;28;20190;-75
2023/07/21 08:59:38;;;;;;;5.80;4.50;;;28.40;91.90;;;;;;5067212;28;20198;-75
2023/07/21 09:02:05;;;;;;;4.47;2.70;;;28.90;91.30;;;;;;5071177;28;20585;-76
2023/07/21 09:04:32;;;;;;;6.90;4.50;;;29.40;90.40;;;;;;5068278;28;20245;-75
2023/07/21 09:07:00;;;;;;;2.53;2.33;;;29.30;89.40;;;;;;5064189;28;20206;-76
2023/07/21 09:09:30;;;;;;;3.30;2.73;;;29.10;86.30;;;;;;5064734;28;20187;-76
2023/07/21 09:12:01;;;;;;;3.47;3.17;;;29.30;90.30;;;;;;5063946;28;20196;-79
2023/07/21 09:14:36;;;;;;;2.37;2.20;;;29.30;84.30;;;;;;5070165;28;20226;-78
2023/07/21 09:17:04;;;;;;;3.03;2.83;;;29.30;85.40;;;;;;5070518;28;20201;-79
2023/07/21 09:19:31;;;;;;;5.03;4.73;;;29.40;87.50;;;;;;5069356;28;20191;-79
2023/07/21 09:21:58;;;;;;;4.90;4.60;;;29.60;89.50;;;;;;5071890;28;20276;-78
2023/07/21 09:24:24;;;;;;;5.07;4.77;;;29.90;84.80;;;;;;5068382;28;20212;-78
2023/07/21 09:27:09;;;;;;;5.60;5.10;;;30.20;82.90;;;;;;5070157;28;20248;-77
2023/07/21 09:29:36;;;;;;;5.57;5.17;;;30.10;81.70;;;;;;5070472;28;20205;-80
2023/07/21 09:32:10;;;;;;;6.10;5.60;;;30.30;85.80;;;;;;5070843;28;20194;-79
2023/07/21 09:34:53;;;;;;;5.50;5.10;;;30.40;82.10;;;;;;5065817;28;20257;-80
2023/07/21 09:37:20;;;;;;;5.40;4.90;;;30.10;84.40;;;;;;5064572;28;20297;-78
2023/07/21 09:39:51;;;;;;;5.17;4.77;;;30.10;86.70;;;;;;5048254;28;20211;-79
2023/07/21 09:42:22;;;;;;;5.30;4.90;;;30.00;84.20;;;;;;5054068;28;20908;-79
2023/07/21 09:44:49;;;;;;;6.43;5.13;;;29.90;87.30;;;;;;5046478;28;20220;-79
2023/07/21 09:47:17;;;;;;;5.40;4.93;;;30.30;88.10;;;;;;5044460;28;20202;-79
2023/07/21 09:49:44;;;;;;;5.23;4.73;;;30.20;84.60;;;;;;5075483;28;20195;-79
2023/07/21 09:52:15;;;;;;;5.10;4.60;;;29.80;84.40;;;;;;5073214;28;20190;-79
2023/07/21 09:54:45;;;;;;;5.60;5.20;;;28.90;83.40;;;;;;5069354;28;20281;-79
2023/07/21 09:57:14;;;;;;;5.70;5.20;;;28.70;89.30;;;;;;5069385;28;20218;-79
2023/07/21 09:59:45;;;;;;;2.50;2.30;;;28.70;84.40;;;;;;5070418;28;20726;-82
2023/07/21 10:02:13;;;;;;;3.43;2.40;;;28.70;90.00;;;;;;5044898;28;20200;-80
2023/07/21 10:04:40;;;;;;;2.50;2.30;;;29.00;90.50;;;;;;5046736;28;20238;-79
2023/07/21 10:07:07;;;;;;;3.63;3.20;;;29.80;90.50;;;;;;5067542;28;20194;-78
2023/07/21 10:09:36;;;;;;;2.90;2.20;;;30.40;87.90;;;;;;5054946;28;20199;-79
2023/07/21 10:12:11;;;;;;;3.00;2.50;;;30.20;86.50;;;;;;5044189;28;20286;-80
2023/07/21 10:14:38;;;;;;;5.90;5.40;;;30.20;86.80;;;;;;5056798;28;20217;-78
2023/07/21 10:17:07;;;;;;;5.80;5.40;;;30.20;86.40;;;;;;5050517;28;20231;-79
2023/07/21 10:19:40;;;;;;;3.03;2.40;;;29.60;85.70;;;;;;5042917;28;20191;-79
2023/07/21 10:22:12;;;;;;;4.70;4.30;;;29.40;86.80;;;;;;5051835;28;20583;-79
2023/07/21 10:24:46;;;;;;;6.37;5.00;;;29.20;86.50;;;;;;5055464;28;20297;-79
2023/07/21 10:27:21;;;;;;;5.67;5.10;;;29.00;86.10;;;;;;5058684;28;20725;-80
2023/07/21 10:29:51;;;;;;;3.13;2.80;;;29.30;89.70;;;;;;5070740;28;20221;-79
2023/07/21 10:32:20;;;;;;;4.80;2.57;;;29.40;86.90;;;;;;5070516;28;20190;-79
2023/07/21 10:34:47;;;;;;;4.40;3.93;;;29.10;88.40;;;;;;5063472;28;20220;-79
2023/07/21 10:37:14;;;;;;;5.83;5.37;;;28.70;89.60;;;;;;5057243;28;20587;-79
2023/07/21 10:39:42;;;;;;;5.30;4.90;;;28.70;88.60;;;;;;5070289;28;20195;-79
2023/07/21 10:42:10;;;;;;;5.03;4.70;;;28.70;89.50;;;;;;5053408;28;20275;-78
2023/07/21 10:44:39;;;;;;;5.07;4.67;;;28.70;89.30;;;;;;5065588;28;20222;-78
2023/07/21 10:47:12;;;;;;;4.70;3.57;;;29.00;88.40;;;;;;5066747;28;20217;-79
2023/07/21 10:49:40;;;;;;;4.00;3.70;;;29.30;89.60;;;;;;5057443;28;20207;-76
2023/07/21 10:52:08;;;;;;;4.00;3.70;;;29.40;87.90;;;;;;5060614;28;20199;-76
2023/07/21 10:54:36;;;;;;;4.83;4.40;;;29.00;89.20;;;;;;5065365;28;20207;-76
2023/07/21 10:57:06;;;;;;;7.13;5.33;;;28.60;87.90;;;;;;5066125;28;20195;-77
2023/07/21 10:59:35;;;;;;;5.90;5.40;;;27.90;86.80;;;;;;5050792;28;20246;-76
2023/07/21 11:02:04;;;;;;;8.10;5.20;;;27.50;89.10;;;;;;5049736;28;20254;-76
2023/07/21 11:04:31;;;;;;;6.20;5.23;;;27.20;91.30;;;;;;5043970;28;20353;-75
2023/07/21 11:07:01;;;;;;;3.57;3.23;;;27.30;90.40;;;;;;5055707;28;20194;-76
2023/07/21 11:09:31;;;;;;;5.33;4.90;;;27.30;90.80;;;;;;5050891;28;20701;-79
2023/07/21 11:11:58;;;;;;;3.83;2.17;;;27.40;92.00;;;;;;5060714;28;20199;-75
2023/07/21 11:14:27;;;;;;;2.77;2.23;;;27.60;91.00;;;;;;5060833;28;20214;-75
2023/07/21 11:16:55;;;;;;;3.30;2.33;;;27.50;89.90;;;;;;5060704;28;20209;-75
2023/07/21 11:19:23;;;;;;;3.37;2.60;;;27.30;88.70;;;;;;5057013;28;20230;-75
2023/07/21 11:21:50;;;;;;;3.40;2.70;;;27.00;90.10;;;;;;5062950;28;20199;-75
2023/07/21 11:24:19;;;;;;;3.40;3.17;;;26.90;91.30;;;;;;5051440;28;20755;-75
2023/07/21 11:26:48;;;;;;;3.97;2.70;;;26.70;91.60;;;;;;5063618;28;20666;-75
2023/07/21 11:29:16;;;;;;;4.17;3.87;;;26.40;91.60;;;;;;5070378;28;20201;-75
2023/07/21 11:31:43;;;;;;;5.23;4.83;;;26.20;92.30;;;;;;5067179;28;20206;-76
2023/07/21 11:34:20;;;;;;;4.73;4.33;;;26.00;92.10;;;;;;5063241;28;20216;-77
2023/07/21 11:36:48;;;;;;;2.73;2.40;;;25.80;92.60;;;;;;5060149;28;20245;-78
2023/07/21 11:39:21;;;;;;;3.17;2.30;;;25.80;92.70;;;;;;5043955;28;20192;-78
2023/07/21 11:41:50;;;;;;;3.40;2.70;;;25.70;91.10;;;;;;5039105;28;20253;-79
2023/07/21 11:44:20;;;;;;;3.90;2.93;;;25.70;91.40;;;;;;5056091;28;20244;-77
2023/07/21 11:46:59;;;;;;;5.93;3.47;;;25.60;92.40;;;;;;5073432;28;20229;-78
2023/07/21 11:49:28;;;;;;;3.87;3.57;;;25.50;91.80;;;;;;5041358;28;20200;-78
2023/07/21 11:51:58;;;;;;;3.70;3.40;;;25.40;92.80;;;;;;5048260;28;20207;-78
2023/07/21 11:54:28;;;;;;;3.87;2.83;;;25.30;92.50;;;;;;5074553;28;20219;-77
2023/07/21 11:56:56;;;;;;;5.40;5.00;;;25.10;92.40;;;;;;5075148;28;20226;-78
2023/07/21 11:59:24;;;;;;;5.87;5.40;;;25.10;92.80;;;;;;5054487;28;20196;-78
2023/07/21 12:01:51;;;;;;;5.93;5.47;;;25.00;91.70;;;;;;5063845;28;20261;-78
2023/07/21 12:04:20;;;;;;;5.50;5.00;;;25.00;94.00;;;;;;5057706;28;20216;-78
2023/07/21 12:06:46;;;;;;;4.10;3.67;;;25.00;93.90;;;;;;5046705;28;20219;-77
2023/07/21 12:09:13;;;;;;;4.40;4.10;;;25.10;94.70;;;;;;5052950;28;20909;-78
2023/07/21 12:11:42;;;;;;;4.93;4.63;;;25.20;94.80;;;;;;5066048;28;20199;-77
2023/07/21 12:14:09;;;;;;;4.90;4.60;;;25.30;94.30;;;;;;5047526;28;20294;-78
2023/07/21 12:16:36;;;;;;;5.00;4.63;;;25.40;94.90;;;;;;5059041;28;20195;-78
2023/07/21 12:19:05;;;;;;;4.70;4.40;;;25.50;94.80;;;;;;5063224;28;20202;-78
2023/07/21 12:21:32;;;;;;;5.60;4.80;;;25.50;93.60;;;;;;5057105;28;20214;-78
2023/07/21 12:23:59;;;;;;;4.57;4.17;;;25.60;92.60;;;;;;5071680;28;20294;-78
2023/07/21 12:26:26;;;;;;;5.23;4.83;;;25.70;92.90;;;;;;5070720;28;20260;-78
2023/07/21 12:28:55;;;;;;;5.17;4.77;;;25.70;94.70;;;;;;5060379;28;20207;-79
2023/07/21 12:31:22;;;;;;;5.23;4.80;;;25.70;92.60;;;;;;5065177;28;20199;-78
2023/07/21 12:33:50;;;;;;;5.33;4.83;;;25.70;93.10;;;;;;5053235;28;20709;-78
2023/07/21 12:36:18;;;;;;;9.93;5.23;;;25.50;92.10;;;;;;5073692;28;20213;-79
2023/07/21 12:38:46;;;;;;;5.50;5.10;;;25.50;92.10;;;;;;5065275;28;20217;-78
2023/07/21 12:41:13;;;;;;;5.10;4.70;;;25.40;92.60;;;;;;5059646;28;20205;-78
2023/07/21 12:43:40;;;;;;;2.30;2.10;;;25.20;95.00;;;;;;5054964;28;20218;-78
2023/07/21 12:46:12;;;;;;;3.87;2.33;;;25.20;95.30;;;;;;5065389;28;20240;-79
2023/07/21 12:48:38;;;;;;;2.97;1.90;;;25.10;92.90;;;;;;5065011;28;20187;-78
2023/07/21 12:51:05;;;;;;;4.30;2.27;;;25.30;93.20;;;;;;5068726;28;20217;-78
2023/07/21 12:53:32;;;;;;;2.60;2.37;;;25.30;93.20;;;;;;5077256;28;20863;-77
2023/07/21 12:55:59;;;;;;;4.70;4.40;;;25.30;93.40;;;;;;5064839;28;20191;-78
2023/07/21 12:58:26;;;;;;;7.13;4.70;;;25.20;93.70;;;;;;5044658;28;20219;-78